sensor_id;sensor_type;location;lat;lon;timestamp;pressure;altitude;pressure_sealevel;temperature;humidity
31403;BME280;18039;52.188;21.024;2023-02-16T00:03:44;78620.59;;;-141.45;100.00
31403;BME280;18039;52.188;21.024;2023-02-16T00:06:11;78620.59;;;-141.45;100.00
31403;BME280;18039;52.188;21.024;2023-02-16T00:08:44;78620.59;;;-141.45;100.00
31403;BME280;18039;52.188;21.024;2023-02-16T00:14:08;78600.31;;;-141.45;100.00
31403;BME280;18039;52.188;21.024;2023-02-16T00:16:36;78598.28;;;-141.45;100.00
31403;BME280;18039;52.188;21.024;2023-02-16T00:19:52;78596.25;;;-141.45;100.00
31403;BME280;18039;52.188;21.024;2023-02-16T00:22:11;78584.09;;;-141.45;100.00
31403;BME280;18039;52.188;21.024;2023-02-16T00:24:39;78584.09;;;-141.45;100.00
31403;BME280;18039;52.188;21.024;2023-02-16T00:27:14;78567.84;;;-141.45;100.00
31403;BME280;18039;52.188;21.024;2023-02-16T00:29:42;78571.91;;;-141.45;100.00
31403;BME280;18039;52.188;21.024;2023-02-16T00:32:11;78563.81;;;-141.45;100.00
31403;BME280;18039;52.188;21.024;2023-02-16T00:34:40;78559.75;;;-141.45;100.00
31403;BME280;18039;52.188;21.024;2023-02-16T00:37:10;78557.72;;;-141.45;100.00
31403;BME280;18039;52.188;21.024;2023-02-16T00:39:40;78543.53;;;-141.45;100.00
31403;BME280;18039;52.188;21.024;2023-02-16T00:44:43;78541.50;;;-141.45;100.00
31403;BME280;18039;52.188;21.024;2023-02-16T00:47:53;78535.41;;;-141.45;100.00
31403;BME280;18039;52.188;21.024;2023-02-16T00:50:05;78531.34;;;-141.45;100.00
31403;BME280;18039;52.188;21.024;2023-02-16T00:52:38;78527.28;;;-141.45;100.00
31403;BME280;18039;52.188;21.024;2023-02-16T00:55:11;78531.34;;;-141.45;100.00
31403;BME280;18039;52.188;21.024;2023-02-16T00:57:43;78527.28;;;-141.45;100.00
31403;BME280;18039;52.188;21.024;2023-02-16T01:00:13;78529.31;;;-141.45;100.00
31403;BME280;18039;52.188;21.024;2023-02-16T01:02:46;78527.28;;;-141.45;100.00
31403;BME280;18039;52.188;21.024;2023-02-16T01:05:14;78525.25;;;-141.45;100.00
31403;BME280;18039;52.188;21.024;2023-02-16T01:07:41;78527.28;;;-141.45;100.00
31403;BME280;18039;52.188;21.024;2023-02-16T01:10:28;78525.25;;;-141.45;100.00
31403;BME280;18039;52.188;21.024;2023-02-16T01:13:14;78531.34;;;-141.45;100.00
31403;BME280;18039;52.188;21.024;2023-02-16T01:15:42;78539.47;;;-141.45;100.00
31403;BME280;18039;52.188;21.024;2023-02-16T01:18:16;78539.47;;;-141.45;100.00
31403;BME280;18039;52.188;21.024;2023-02-16T01:20:44;78545.53;;;-141.45;100.00
31403;BME280;18039;52.188;21.024;2023-02-16T01:23:12;78543.53;;;-141.45;100.00
31403;BME280;18039;52.188;21.024;2023-02-16T01:25:40;78547.56;;;-141.45;100.00
31403;BME280;18039;52.188;21.024;2023-02-16T01:28:21;78551.63;;;-141.45;100.00
31403;BME280;18039;52.188;21.024;2023-02-16T01:30:50;78555.69;;;-141.45;100.00
31403;BME280;18039;52.188;21.024;2023-02-16T01:33:18;78551.63;;;-141.45;100.00
31403;BME280;18039;52.188;21.024;2023-02-16T01:35:45;78543.53;;;-141.45;100.00
31403;BME280;18039;52.188;21.024;2023-02-16T01:38:17;78543.53;;;-141.45;100.00
31403;BME280;18039;52.188;21.024;2023-02-16T01:41:08;78547.56;;;-141.45;100.00
31403;BME280;18039;52.188;21.024;2023-02-16T01:43:58;78549.59;;;-141.45;100.00
31403;BME280;18039;52.188;21.024;2023-02-16T01:46:35;78547.56;;;-141.45;100.00
31403;BME280;18039;52.188;21.024;2023-02-16T01:49:04;78555.69;;;-141.45;100.00
31403;BME280;18039;52.188;21.024;2023-02-16T01:51:45;78549.59;;;-141.45;100.00
31403;BME280;18039;52.188;21.024;2023-02-16T01:54:42;78555.69;;;-141.45;100.00
31403;BME280;18039;52.188;21.024;2023-02-16T02:02:27;78539.47;;;-141.45;100.00
31403;BME280;18039;52.188;21.024;2023-02-16T02:05:07;78541.50;;;-141.45;100.00
31403;BME280;18039;52.188;21.024;2023-02-16T02:07:55;78543.53;;;-141.45;100.00
31403;BME280;18039;52.188;21.024;2023-02-16T02:16:03;78531.34;;;-141.45;100.00
31403;BME280;18039;52.188;21.024;2023-02-16T02:18:32;78547.56;;;-141.45;100.00
31403;BME280;18039;52.188;21.024;2023-02-16T02:27:27;78529.31;;;-141.45;100.00
31403;BME280;18039;52.188;21.024;2023-02-16T02:32:51;78527.28;;;-141.45;100.00
31403;BME280;18039;52.188;21.024;2023-02-16T02:38:33;78523.25;;;-141.45;100.00
31403;BME280;18039;52.188;21.024;2023-02-16T02:41:23;78523.25;;;-141.45;100.00
31403;BME280;18039;52.188;21.024;2023-02-16T02:44:14;78523.25;;;-141.45;100.00
31403;BME280;18039;52.188;21.024;2023-02-16T02:46:43;78515.13;;;-141.45;100.00
31403;BME280;18039;52.188;21.024;2023-02-16T02:49:12;78519.19;;;-141.45;100.00
31403;BME280;18039;52.188;21.024;2023-02-16T02:51:41;78523.25;;;-141.45;100.00
31403;BME280;18039;52.188;21.024;2023-02-16T02:54:30;78519.19;;;-141.45;100.00
31403;BME280;18039;52.188;21.024;2023-02-16T02:57:31;78513.09;;;-141.45;100.00
31403;BME280;18039;52.188;21.024;2023-02-16T03:00:27;78511.06;;;-141.45;100.00
31403;BME280;18039;52.188;21.024;2023-02-16T03:03:23;78511.06;;;-141.45;100.00
31403;BME280;18039;52.188;21.024;2023-02-16T03:08:26;78507.00;;;-141.45;100.00
31403;BME280;18039;52.188;21.024;2023-02-16T03:11:11;78511.06;;;-141.45;100.00
31403;BME280;18039;52.188;21.024;2023-02-16T03:14:05;78498.91;;;-141.45;100.00
31403;BME280;18039;52.188;21.024;2023-02-16T03:16:40;78507.00;;;-141.45;100.00
31403;BME280;18039;52.188;21.024;2023-02-16T03:19:11;78502.94;;;-141.45;100.00
31403;BME280;18039;52.188;21.024;2023-02-16T03:21:58;78507.00;;;-141.45;100.00
31403;BME280;18039;52.188;21.024;2023-02-16T03:24:46;78482.66;;;-141.45;100.00
31403;BME280;18039;52.188;21.024;2023-02-16T03:27:39;78494.84;;;-141.45;100.00
31403;BME280;18039;52.188;21.024;2023-02-16T03:30:26;78490.78;;;-141.45;100.00
31403;BME280;18039;52.188;21.024;2023-02-16T03:32:55;78498.91;;;-141.45;100.00
31403;BME280;18039;52.188;21.024;2023-02-16T03:35:22;78494.84;;;-141.45;100.00
31403;BME280;18039;52.188;21.024;2023-02-16T03:37:50;78494.84;;;-141.45;100.00
31403;BME280;18039;52.188;21.024;2023-02-16T03:40:18;78494.84;;;-141.45;100.00
31403;BME280;18039;52.188;21.024;2023-02-16T03:43:03;78496.88;;;-141.45;100.00
31403;BME280;18039;52.188;21.024;2023-02-16T03:45:34;78494.84;;;-141.45;100.00
31403;BME280;18039;52.188;21.024;2023-02-16T03:48:02;78490.78;;;-141.45;100.00
31403;BME280;18039;52.188;21.024;2023-02-16T03:50:29;78486.72;;;-141.45;100.00
31403;BME280;18039;52.188;21.024;2023-02-16T03:52:57;78490.78;;;-141.45;100.00
31403;BME280;18039;52.188;21.024;2023-02-16T03:55:52;78486.72;;;-141.45;100.00
31403;BME280;18039;52.188;21.024;2023-02-16T03:58:21;78478.63;;;-141.45;100.00
31403;BME280;18039;52.188;21.024;2023-02-16T04:00:50;78466.44;;;-141.45;100.00
31403;BME280;18039;52.188;21.024;2023-02-16T04:03:18;78462.38;;;-141.45;100.00
31403;BME280;18039;52.188;21.024;2023-02-16T04:05:45;78470.50;;;-141.45;100.00
31403;BME280;18039;52.188;21.024;2023-02-16T04:08:12;78470.50;;;-141.45;100.00
31403;BME280;18039;52.188;21.024;2023-02-16T04:10:40;78478.63;;;-141.45;100.00
31403;BME280;18039;52.188;21.024;2023-02-16T04:13:07;78462.38;;;-141.45;100.00
31403;BME280;18039;52.188;21.024;2023-02-16T04:15:35;78454.28;;;-141.45;100.00
31403;BME280;18039;52.188;21.024;2023-02-16T04:18:02;78458.34;;;-141.45;100.00
31403;BME280;18039;52.188;21.024;2023-02-16T04:20:33;78462.38;;;-141.45;100.00
31403;BME280;18039;52.188;21.024;2023-02-16T04:23:01;78454.28;;;-141.45;100.00
31403;BME280;18039;52.188;21.024;2023-02-16T04:25:29;78446.16;;;-141.45;100.00
31403;BME280;18039;52.188;21.024;2023-02-16T04:27:56;78450.22;;;-141.45;100.00
31403;BME280;18039;52.188;21.024;2023-02-16T04:30:25;78458.34;;;-141.45;100.00
31403;BME280;18039;52.188;21.024;2023-02-16T04:32:53;78454.28;;;-141.45;100.00
31403;BME280;18039;52.188;21.024;2023-02-16T04:35:21;78466.44;;;-141.45;100.00
31403;BME280;18039;52.188;21.024;2023-02-16T04:37:48;78464.41;;;-141.45;100.00
31403;BME280;18039;52.188;21.024;2023-02-16T04:40:16;78466.44;;;-141.45;100.00
31403;BME280;18039;52.188;21.024;2023-02-16T04:42:44;78470.50;;;-141.45;100.00
31403;BME280;18039;52.188;21.024;2023-02-16T04:45:12;78470.50;;;-141.45;100.00
31403;BME280;18039;52.188;21.024;2023-02-16T04:47:40;78478.63;;;-141.45;100.00
31403;BME280;18039;52.188;21.024;2023-02-16T04:50:08;78482.66;;;-141.45;100.00
31403;BME280;18039;52.188;21.024;2023-02-16T04:52:36;78482.66;;;-141.45;100.00
31403;BME280;18039;52.188;21.024;2023-02-16T04:55:04;78490.78;;;-141.45;100.00
31403;BME280;18039;52.188;21.024;2023-02-16T04:57:33;78482.66;;;-141.45;100.00
31403;BME280;18039;52.188;21.024;2023-02-16T05:00:00;78490.78;;;-141.45;100.00
31403;BME280;18039;52.188;21.024;2023-02-16T05:02:27;78498.91;;;-141.45;100.00
31403;BME280;18039;52.188;21.024;2023-02-16T05:04:54;78492.81;;;-141.45;100.00
31403;BME280;18039;52.188;21.024;2023-02-16T05:07:21;78492.81;;;-141.45;100.00
31403;BME280;18039;52.188;21.024;2023-02-16T05:09:50;78490.78;;;-141.45;100.00
31403;BME280;18039;52.188;21.024;2023-02-16T05:12:17;78498.91;;;-141.45;100.00
31403;BME280;18039;52.188;21.024;2023-02-16T05:15:04;78490.78;;;-141.45;100.00
31403;BME280;18039;52.188;21.024;2023-02-16T05:17:31;78502.94;;;-141.45;100.00
31403;BME280;18039;52.188;21.024;2023-02-16T05:19:59;78498.91;;;-141.45;100.00
31403;BME280;18039;52.188;21.024;2023-02-16T05:22:27;78504.97;;;-141.45;100.00
31403;BME280;18039;52.188;21.024;2023-02-16T05:24:54;78494.84;;;-141.45;100.00
31403;BME280;18039;52.188;21.024;2023-02-16T05:27:24;78498.91;;;-141.45;100.00
31403;BME280;18039;52.188;21.024;2023-02-16T05:29:52;78490.78;;;-141.45;100.00
31403;BME280;18039;52.188;21.024;2023-02-16T05:32:19;78502.94;;;-141.45;100.00
31403;BME280;18039;52.188;21.024;2023-02-16T05:34:47;78502.94;;;-141.45;100.00
31403;BME280;18039;52.188;21.024;2023-02-16T05:37:15;78502.94;;;-141.45;100.00
31403;BME280;18039;52.188;21.024;2023-02-16T05:39:43;78511.06;;;-141.45;100.00
31403;BME280;18039;52.188;21.024;2023-02-16T05:42:11;78504.97;;;-141.45;100.00
31403;BME280;18039;52.188;21.024;2023-02-16T05:44:38;78496.88;;;-141.45;100.00
31403;BME280;18039;52.188;21.024;2023-02-16T05:47:06;78502.94;;;-141.45;100.00
31403;BME280;18039;52.188;21.024;2023-02-16T05:49:33;78498.91;;;-141.45;100.00
31403;BME280;18039;52.188;21.024;2023-02-16T05:52:00;78494.84;;;-141.45;100.00
31403;BME280;18039;52.188;21.024;2023-02-16T05:54:28;78511.06;;;-141.45;100.00
31403;BME280;18039;52.188;21.024;2023-02-16T05:56:55;78498.91;;;-141.45;100.00
31403;BME280;18039;52.188;21.024;2023-02-16T05:59:22;78498.91;;;-141.45;100.00
31403;BME280;18039;52.188;21.024;2023-02-16T06:01:49;78494.84;;;-141.45;100.00
31403;BME280;18039;52.188;21.024;2023-02-16T06:04:19;78486.72;;;-141.45;100.00
31403;BME280;18039;52.188;21.024;2023-02-16T06:06:47;78486.72;;;-141.45;100.00
31403;BME280;18039;52.188;21.024;2023-02-16T06:09:14;78478.63;;;-141.45;100.00
31403;BME280;18039;52.188;21.024;2023-02-16T06:11:42;78482.66;;;-141.45;100.00
31403;BME280;18039;52.188;21.024;2023-02-16T06:14:12;78474.56;;;-141.45;100.00
31403;BME280;18039;52.188;21.024;2023-02-16T06:16:41;78480.66;;;-141.45;100.00
31403;BME280;18039;52.188;21.024;2023-02-16T06:19:09;78480.66;;;-141.45;100.00
31403;BME280;18039;52.188;21.024;2023-02-16T06:21:38;78476.59;;;-141.45;100.00
31403;BME280;18039;52.188;21.024;2023-02-16T06:24:07;78462.38;;;-141.45;100.00
31403;BME280;18039;52.188;21.024;2023-02-16T06:26:35;78452.25;;;-141.45;100.00
31403;BME280;18039;52.188;21.024;2023-02-16T06:29:03;78434.00;;;-141.45;100.00
31403;BME280;18039;52.188;21.024;2023-02-16T06:31:30;78442.09;;;-141.45;100.00
31403;BME280;18039;52.188;21.024;2023-02-16T06:34:02;78434.00;;;-141.45;100.00
31403;BME280;18039;52.188;21.024;2023-02-16T06:36:30;78423.84;;;-141.45;100.00
31403;BME280;18039;52.188;21.024;2023-02-16T06:38:57;78417.78;;;-141.45;100.00
31403;BME280;18039;52.188;21.024;2023-02-16T06:41:24;78405.59;;;-141.45;100.00
31403;BME280;18039;52.188;21.024;2023-02-16T06:43:59;78397.50;;;-141.45;100.00
31403;BME280;18039;52.188;21.024;2023-02-16T06:46:26;78393.44;;;-141.45;100.00
31403;BME280;18039;52.188;21.024;2023-02-16T06:48:55;78393.44;;;-141.45;100.00
31403;BME280;18039;52.188;21.024;2023-02-16T06:51:22;78393.44;;;-141.45;100.00
31403;BME280;18039;52.188;21.024;2023-02-16T06:53:50;78383.28;;;-141.45;100.00
31403;BME280;18039;52.188;21.024;2023-02-16T06:56:17;78373.16;;;-141.45;100.00
31403;BME280;18039;52.188;21.024;2023-02-16T06:58:44;78365.03;;;-141.45;100.00
31403;BME280;18039;52.188;21.024;2023-02-16T07:01:11;78356.94;;;-141.45;100.00
31403;BME280;18039;52.188;21.024;2023-02-16T07:03:38;78348.81;;;-141.45;100.00
31403;BME280;18039;52.188;21.024;2023-02-16T07:06:06;78344.75;;;-141.45;100.00
31403;BME280;18039;52.188;21.024;2023-02-16T07:08:33;78340.69;;;-141.45;100.00
31403;BME280;18039;52.188;21.024;2023-02-16T07:11:01;78328.53;;;-141.45;100.00
31403;BME280;18039;52.188;21.024;2023-02-16T07:13:29;78312.31;;;-141.45;100.00
31403;BME280;18039;52.188;21.024;2023-02-16T07:15:56;78300.13;;;-141.45;100.00
31403;BME280;18039;52.188;21.024;2023-02-16T07:18:24;78283.91;;;-141.45;100.00
31403;BME280;18039;52.188;21.024;2023-02-16T07:20:51;78271.75;;;-141.45;100.00
31403;BME280;18039;52.188;21.024;2023-02-16T07:23:18;78259.56;;;-141.45;100.00
31403;BME280;18039;52.188;21.024;2023-02-16T07:25:45;78247.41;;;-141.45;100.00
31403;BME280;18039;52.188;21.024;2023-02-16T07:28:13;78237.28;;;-141.45;100.00
31403;BME280;18039;52.188;21.024;2023-02-16T07:30:40;78227.13;;;-141.45;100.00
31403;BME280;18039;52.188;21.024;2023-02-16T07:33:09;78210.91;;;-141.45;100.00
31403;BME280;18039;52.188;21.024;2023-02-16T07:35:36;78206.84;;;-141.45;100.00
31403;BME280;18039;52.188;21.024;2023-02-16T07:38:04;78178.44;;;-141.45;100.00
31403;BME280;18039;52.188;21.024;2023-02-16T07:40:32;78174.41;;;-141.45;100.00
31403;BME280;18039;52.188;21.024;2023-02-16T07:43:01;78170.34;;;-141.45;99.52
31403;BME280;18039;52.188;21.024;2023-02-16T07:45:28;78154.13;;;-141.45;99.32
31403;BME280;18039;52.188;21.024;2023-02-16T07:47:56;78146.00;;;-141.45;99.33
31403;BME280;18039;52.188;21.024;2023-02-16T07:50:23;78141.94;;;-141.45;98.64
31403;BME280;18039;52.188;21.024;2023-02-16T07:52:50;78135.88;;;-141.45;98.19
31403;BME280;18039;52.188;21.024;2023-02-16T07:55:17;78129.78;;;-141.45;97.57
31403;BME280;18039;52.188;21.024;2023-02-16T07:57:45;78121.66;;;-141.45;97.69
31403;BME280;18039;52.188;21.024;2023-02-16T08:00:15;78113.56;;;-141.45;96.83
31403;BME280;18039;52.188;21.024;2023-02-16T08:02:43;78097.34;;;-141.45;96.79
31403;BME280;18039;52.188;21.024;2023-02-16T08:05:11;78081.09;;;-141.45;96.48
31403;BME280;18039;52.188;21.024;2023-02-16T08:07:40;78081.09;;;-141.45;95.49
31403;BME280;18039;52.188;21.024;2023-02-16T08:10:08;78064.88;;;-141.45;94.44
31403;BME280;18039;52.188;21.024;2023-02-16T08:12:36;78048.66;;;-141.45;93.32
31403;BME280;18039;52.188;21.024;2023-02-16T08:15:03;78048.66;;;-141.45;91.84
31403;BME280;18039;52.188;21.024;2023-02-16T08:17:31;78048.66;;;-141.45;92.49
31403;BME280;18039;52.188;21.024;2023-02-16T08:19:58;78048.66;;;-141.45;92.53
31403;BME280;18039;52.188;21.024;2023-02-16T08:22:25;78032.44;;;-141.45;92.81
31403;BME280;18039;52.188;21.024;2023-02-16T08:24:53;78014.19;;;-141.45;90.99
31403;BME280;18039;52.188;21.024;2023-02-16T08:27:21;78014.19;;;-141.45;91.33
31403;BME280;18039;52.188;21.024;2023-02-16T08:29:48;78016.22;;;-141.45;90.58
31403;BME280;18039;52.188;21.024;2023-02-16T08:32:16;78012.16;;;-141.45;90.94
31403;BME280;18039;52.188;21.024;2023-02-16T08:34:43;78008.09;;;-141.45;91.27
31403;BME280;18039;52.188;21.024;2023-02-16T08:37:12;78000.00;;;-141.45;91.10
31403;BME280;18039;52.188;21.024;2023-02-16T08:39:39;77983.75;;;-141.45;90.48
31403;BME280;18039;52.188;21.024;2023-02-16T08:42:10;77971.59;;;-141.45;90.17
31403;BME280;18039;52.188;21.024;2023-02-16T08:44:38;77963.50;;;-141.45;89.54
31403;BME280;18039;52.188;21.024;2023-02-16T08:47:06;77947.25;;;-141.45;89.89
31403;BME280;18039;52.188;21.024;2023-02-16T08:49:35;77945.25;;;-141.45;89.69
31403;BME280;18039;52.188;21.024;2023-02-16T08:52:02;77935.09;;;-141.45;89.10
31403;BME280;18039;52.188;21.024;2023-02-16T08:54:31;77935.09;;;-141.45;88.50
31403;BME280;18039;52.188;21.024;2023-02-16T08:56:59;77918.88;;;-141.45;86.97
31403;BME280;18039;52.188;21.024;2023-02-16T08:59:29;77908.72;;;-141.45;86.27
31403;BME280;18039;52.188;21.024;2023-02-16T09:01:57;77902.66;;;-141.45;86.72
31403;BME280;18039;52.188;21.024;2023-02-16T09:04:26;77890.47;;;-141.45;86.15
31403;BME280;18039;52.188;21.024;2023-02-16T09:06:56;77890.47;;;-141.45;85.41
31403;BME280;18039;52.188;21.024;2023-02-16T09:09:24;77886.44;;;-141.45;85.90
31403;BME280;18039;52.188;21.024;2023-02-16T09:11:52;77874.25;;;-141.45;86.15
31403;BME280;18039;52.188;21.024;2023-02-16T09:14:19;77853.97;;;-141.45;85.04
31403;BME280;18039;52.188;21.024;2023-02-16T09:16:48;77841.81;;;-141.45;83.74
31403;BME280;18039;52.188;21.024;2023-02-16T09:19:18;77845.88;;;-141.45;83.20
31403;BME280;18039;52.188;21.024;2023-02-16T09:21:46;77841.81;;;-141.45;83.74
31403;BME280;18039;52.188;21.024;2023-02-16T09:24:16;77819.50;;;-141.45;82.14
31403;BME280;18039;52.188;21.024;2023-02-16T09:26:44;77813.44;;;-141.45;81.98
31403;BME280;18039;52.188;21.024;2023-02-16T09:29:13;77805.31;;;-141.45;82.28
31403;BME280;18039;52.188;21.024;2023-02-16T09:31:41;77780.97;;;-141.45;81.20
31403;BME280;18039;52.188;21.024;2023-02-16T09:34:20;77789.09;;;-141.45;81.50
31403;BME280;18039;52.188;21.024;2023-02-16T09:36:48;77776.94;;;-141.45;80.42
31403;BME280;18039;52.188;21.024;2023-02-16T09:39:16;77780.97;;;-141.45;80.12
31403;BME280;18039;52.188;21.024;2023-02-16T09:47:02;77768.81;;;-141.45;78.95
31403;BME280;18039;52.188;21.024;2023-02-16T09:49:34;77766.78;;;-141.45;79.23
31403;BME280;18039;52.188;21.024;2023-02-16T09:54:49;77748.53;;;-141.45;78.34
31403;BME280;18039;52.188;21.024;2023-02-16T10:02:52;77716.09;;;-141.45;77.57
31403;BME280;18039;52.188;21.024;2023-02-16T10:05:31;77710.00;;;-141.45;77.73
31403;BME280;18039;52.188;21.024;2023-02-16T10:08:10;77712.03;;;-141.45;78.07
31403;BME280;18039;52.188;21.024;2023-02-16T10:10:48;77697.84;;;-141.45;77.26
31403;BME280;18039;52.188;21.024;2023-02-16T10:13:26;77695.81;;;-141.45;77.04
31403;BME280;18039;52.188;21.024;2023-02-16T10:15:58;77677.56;;;-141.45;76.87
31403;BME280;18039;52.188;21.024;2023-02-16T10:18:31;77659.31;;;-141.45;76.75
31403;BME280;18039;52.188;21.024;2023-02-16T10:21:02;77647.16;;;-141.45;75.90
31403;BME280;18039;52.188;21.024;2023-02-16T10:23:43;77663.38;;;-141.45;77.13
31403;BME280;18039;52.188;21.024;2023-02-16T10:28:54;77667.44;;;-141.45;76.31
31403;BME280;18039;52.188;21.024;2023-02-16T10:31:35;77675.53;;;-141.45;76.51
31403;BME280;18039;52.188;21.024;2023-02-16T10:37:05;77667.44;;;-141.45;76.61
31403;BME280;18039;52.188;21.024;2023-02-16T10:42:38;77639.03;;;-141.45;76.78
31403;BME280;18039;52.188;21.024;2023-02-16T10:47:42;77614.69;;;-141.45;77.06
31403;BME280;18039;52.188;21.024;2023-02-16T10:50:22;77582.25;;;-141.45;77.11
31403;BME280;18039;52.188;21.024;2023-02-16T10:52:55;77566.03;;;-141.45;76.99
31403;BME280;18039;52.188;21.024;2023-02-16T10:55:24;77547.78;;;-141.45;76.21
31403;BME280;18039;52.188;21.024;2023-02-16T10:57:55;77545.75;;;-141.45;76.15
31403;BME280;18039;52.188;21.024;2023-02-16T11:03:28;77509.25;;;-141.45;75.04
31403;BME280;18039;52.188;21.024;2023-02-16T11:06:12;77501.16;;;-141.45;75.48
31403;BME280;18039;52.188;21.024;2023-02-16T11:08:47;77478.84;;;-141.45;75.27
31403;BME280;18039;52.188;21.024;2023-02-16T11:11:16;77464.66;;;-141.45;74.62
31403;BME280;18039;52.188;21.024;2023-02-16T11:13:48;77456.53;;;-141.45;74.38
31403;BME280;18039;52.188;21.024;2023-02-16T11:16:23;77444.38;;;-141.45;74.03
31403;BME280;18039;52.188;21.024;2023-02-16T11:19:05;77436.28;;;-141.45;73.90
31403;BME280;18039;52.188;21.024;2023-02-16T11:21:44;77420.06;;;-141.45;73.04
31403;BME280;18039;52.188;21.024;2023-02-16T11:24:29;77399.78;;;-141.45;73.56
31403;BME280;18039;52.188;21.024;2023-02-16T11:29:31;77371.38;;;-141.45;72.66
31403;BME280;18039;52.188;21.024;2023-02-16T11:32:04;77371.38;;;-141.45;73.36
31403;BME280;18039;52.188;21.024;2023-02-16T11:39:47;77363.28;;;-141.45;72.19
31403;BME280;18039;52.188;21.024;2023-02-16T11:42:23;77367.34;;;-141.45;72.63
31403;BME280;18039;52.188;21.024;2023-02-16T11:44:54;77351.13;;;-141.45;72.60
31403;BME280;18039;52.188;21.024;2023-02-16T11:50:19;77330.84;;;-141.45;72.11
31403;BME280;18039;52.188;21.024;2023-02-16T11:52:52;77320.69;;;-141.45;71.86
31403;BME280;18039;52.188;21.024;2023-02-16T11:55:25;77316.66;;;-141.45;72.07
31403;BME280;18039;52.188;21.024;2023-02-16T11:57:53;77306.50;;;-141.45;71.75
31403;BME280;18039;52.188;21.024;2023-02-16T12:00:23;77286.22;;;-141.45;71.06
31403;BME280;18039;52.188;21.024;2023-02-16T12:08:17;77300.44;;;-141.45;72.28
31403;BME280;18039;52.188;21.024;2023-02-16T12:11:04;77294.34;;;-141.45;72.16
31403;BME280;18039;52.188;21.024;2023-02-16T12:19:35;77270.00;;;-141.45;72.09
31403;BME280;18039;52.188;21.024;2023-02-16T12:35:42;77229.47;;;-141.45;71.89
31403;BME280;18039;52.188;21.024;2023-02-16T12:38:45;77233.53;;;-141.45;72.00
31403;BME280;18039;52.188;21.024;2023-02-16T12:43:56;77225.41;;;-141.45;72.04
31403;BME280;18039;52.188;21.024;2023-02-16T12:46:35;77221.34;;;-141.45;72.33
31403;BME280;18039;52.188;21.024;2023-02-16T12:49:14;77241.63;;;-141.45;73.17
31403;BME280;18039;52.188;21.024;2023-02-16T12:51:58;77237.56;;;-141.45;73.16
31403;BME280;18039;52.188;21.024;2023-02-16T12:54:37;77229.47;;;-141.45;73.25
31403;BME280;18039;52.188;21.024;2023-02-16T12:57:16;77235.53;;;-141.45;73.36
31403;BME280;18039;52.188;21.024;2023-02-16T12:59:59;77245.69;;;-141.45;73.50
31403;BME280;18039;52.188;21.024;2023-02-16T13:02:36;77241.63;;;-141.45;74.21
31403;BME280;18039;52.188;21.024;2023-02-16T13:05:12;77241.63;;;-141.45;74.36
31403;BME280;18039;52.188;21.024;2023-02-16T13:07:46;77233.53;;;-141.45;73.77
31403;BME280;18039;52.188;21.024;2023-02-16T13:10:22;77225.41;;;-141.45;73.50
31403;BME280;18039;52.188;21.024;2023-02-16T13:12:56;77253.78;;;-141.45;74.14
31403;BME280;18039;52.188;21.024;2023-02-16T13:18:00;77267.97;;;-141.45;75.17
31403;BME280;18039;52.188;21.024;2023-02-16T13:20:29;77253.78;;;-141.45;74.93
31403;BME280;18039;52.188;21.024;2023-02-16T13:37:58;77223.38;;;-141.45;73.86
31403;BME280;18039;52.188;21.024;2023-02-16T13:40:28;77225.41;;;-141.45;74.00
31403;BME280;18039;52.188;21.024;2023-02-16T13:43:11;77213.25;;;-141.45;73.99
31403;BME280;18039;52.188;21.024;2023-02-16T13:45:43;77211.22;;;-141.45;74.08
31403;BME280;18039;52.188;21.024;2023-02-16T13:50:57;77209.19;;;-141.45;74.63
31403;BME280;18039;52.188;21.024;2023-02-16T13:53:37;77211.22;;;-141.45;74.51
31403;BME280;18039;52.188;21.024;2023-02-16T13:58:59;77207.16;;;-141.45;74.81
31403;BME280;18039;52.188;21.024;2023-02-16T14:01:49;77213.25;;;-141.45;75.14
31403;BME280;18039;52.188;21.024;2023-02-16T14:09:45;77235.53;;;-141.45;76.57
31403;BME280;18039;52.188;21.024;2023-02-16T14:12:17;77239.59;;;-141.45;76.47
31403;BME280;18039;52.188;21.024;2023-02-16T14:14:55;77239.59;;;-141.45;76.50
31403;BME280;18039;52.188;21.024;2023-02-16T14:17:27;77245.69;;;-141.45;76.76
31403;BME280;18039;52.188;21.024;2023-02-16T14:20:27;77253.78;;;-141.45;76.92
31403;BME280;18039;52.188;21.024;2023-02-16T14:22:54;77261.91;;;-141.45;77.30
31403;BME280;18039;52.188;21.024;2023-02-16T14:28:00;77270.00;;;-141.45;77.70
31403;BME280;18039;52.188;21.024;2023-02-16T14:30:48;77274.06;;;-141.45;77.98
31403;BME280;18039;52.188;21.024;2023-02-16T14:33:21;77278.13;;;-141.45;78.59
31403;BME280;18039;52.188;21.024;2023-02-16T14:40:56;77292.31;;;-141.45;78.90
31403;BME280;18039;52.188;21.024;2023-02-16T14:46:21;77302.44;;;-141.45;79.72
31403;BME280;18039;52.188;21.024;2023-02-16T14:49:10;77302.44;;;-141.45;79.74
31403;BME280;18039;52.188;21.024;2023-02-16T14:59:54;77330.84;;;-141.45;80.73
31403;BME280;18039;52.188;21.024;2023-02-16T15:02:36;77330.84;;;-141.45;80.81
31403;BME280;18039;52.188;21.024;2023-02-16T15:05:19;77322.72;;;-141.45;80.51
31403;BME280;18039;52.188;21.024;2023-02-16T15:07:52;77322.72;;;-141.45;80.41
31403;BME280;18039;52.188;21.024;2023-02-16T15:10:25;77343.00;;;-141.45;81.06
31403;BME280;18039;52.188;21.024;2023-02-16T15:12:56;77345.03;;;-141.45;81.40
31403;BME280;18039;52.188;21.024;2023-02-16T15:15:42;77340.97;;;-141.45;80.90
31403;BME280;18039;52.188;21.024;2023-02-16T15:18:18;77347.06;;;-141.45;81.46